Weather at Kaiser Permanente Modesto Heliport

Public forecast

Using degrees Fahrenheit for public forecast. Weather courtesy of forecast.io.

Closest aviation weather report (METAR) to Kaiser Permanente Modesto Heliport

Closest report is Modesto City Co-Harry Sham Field, 6.8 nm (12.6 km) SE. Retrieved 2020/11/28 15:53 UTC (27 minutes ago):

KMOD 281553Z 00000KT 7SM CLR 01/01 A3029 RMK AO2 SLP258 T00110006

Closest aviation forecast (TAF) to Kaiser Permanente Modesto Heliport

Closest forecast is Modesto City Co-Harry Sham Field, 6.8 nm (12.6 km) SE. Retrieved 2020/11/28 12:25 UTC (4 hours ago):

TAF KMOD 281120Z 2812/2912 VRB03KT P6SM SKC TEMPO 2812/2816 5SM BR